sensor_id;sensor_type;location;lat;lon;timestamp;temperature;humidity
13148;DHT22;6639;50.956;4.242;2023-12-29T00:02:11;13.30;99.90
13148;DHT22;6639;50.956;4.242;2023-12-29T00:04:38;13.10;99.90
13148;DHT22;6639;50.956;4.242;2023-12-29T00:07:05;13.20;99.90
13148;DHT22;6639;50.956;4.242;2023-12-29T00:09:32;13.10;99.90
13148;DHT22;6639;50.956;4.242;2023-12-29T00:12:04;12.90;99.90
13148;DHT22;6639;50.956;4.242;2023-12-29T00:14:31;13.00;99.90
13148;DHT22;6639;50.956;4.242;2023-12-29T00:16:58;13.00;99.90
13148;DHT22;6639;50.956;4.242;2023-12-29T00:19:27;13.10;99.90
13148;DHT22;6639;50.956;4.242;2023-12-29T00:21:54;13.30;99.90
13148;DHT22;6639;50.956;4.242;2023-12-29T00:24:21;13.50;99.90
13148;DHT22;6639;50.956;4.242;2023-12-29T00:26:47;13.30;99.90
13148;DHT22;6639;50.956;4.242;2023-12-29T00:29:14;13.20;99.90
13148;DHT22;6639;50.956;4.242;2023-12-29T00:31:41;13.50;99.90
13148;DHT22;6639;50.956;4.242;2023-12-29T00:34:08;13.30;99.90
13148;DHT22;6639;50.956;4.242;2023-12-29T00:36:36;13.20;99.90
13148;DHT22;6639;50.956;4.242;2023-12-29T00:39:03;13.30;99.90
13148;DHT22;6639;50.956;4.242;2023-12-29T00:41:31;13.00;99.90
13148;DHT22;6639;50.956;4.242;2023-12-29T00:43:58;12.90;99.90
13148;DHT22;6639;50.956;4.242;2023-12-29T00:46:25;13.10;99.90
13148;DHT22;6639;50.956;4.242;2023-12-29T00:48:52;13.30;99.90
13148;DHT22;6639;50.956;4.242;2023-12-29T00:51:19;13.60;99.90
13148;DHT22;6639;50.956;4.242;2023-12-29T00:53:47;13.60;99.90
13148;DHT22;6639;50.956;4.242;2023-12-29T00:56:14;13.30;99.90
13148;DHT22;6639;50.956;4.242;2023-12-29T00:58:42;13.50;99.90
13148;DHT22;6639;50.956;4.242;2023-12-29T01:01:09;13.40;99.90
13148;DHT22;6639;50.956;4.242;2023-12-29T01:03:37;13.30;99.90
13148;DHT22;6639;50.956;4.242;2023-12-29T01:06:04;13.10;99.90
13148;DHT22;6639;50.956;4.242;2023-12-29T01:08:31;12.90;99.90
13148;DHT22;6639;50.956;4.242;2023-12-29T01:11:00;13.10;99.90
13148;DHT22;6639;50.956;4.242;2023-12-29T01:13:27;13.00;99.90
13148;DHT22;6639;50.956;4.242;2023-12-29T01:15:54;13.40;99.90
13148;DHT22;6639;50.956;4.242;2023-12-29T01:18:21;13.40;99.90
13148;DHT22;6639;50.956;4.242;2023-12-29T01:20:48;13.20;99.90
13148;DHT22;6639;50.956;4.242;2023-12-29T01:23:14;13.10;99.90
13148;DHT22;6639;50.956;4.242;2023-12-29T01:25:42;13.00;99.90
13148;DHT22;6639;50.956;4.242;2023-12-29T01:28:11;13.30;99.90
13148;DHT22;6639;50.956;4.242;2023-12-29T01:30:38;13.40;99.90
13148;DHT22;6639;50.956;4.242;2023-12-29T01:33:05;13.10;99.90
13148;DHT22;6639;50.956;4.242;2023-12-29T01:35:32;13.20;99.90
13148;DHT22;6639;50.956;4.242;2023-12-29T01:37:59;13.30;99.90
13148;DHT22;6639;50.956;4.242;2023-12-29T01:40:26;13.30;99.90
13148;DHT22;6639;50.956;4.242;2023-12-29T01:42:53;13.20;99.90
13148;DHT22;6639;50.956;4.242;2023-12-29T01:45:22;13.10;99.90
13148;DHT22;6639;50.956;4.242;2023-12-29T01:47:52;13.10;99.90
13148;DHT22;6639;50.956;4.242;2023-12-29T01:50:21;13.10;99.90
13148;DHT22;6639;50.956;4.242;2023-12-29T01:52:49;13.10;99.90
13148;DHT22;6639;50.956;4.242;2023-12-29T01:55:18;13.40;99.90
13148;DHT22;6639;50.956;4.242;2023-12-29T01:57:47;13.20;99.90
13148;DHT22;6639;50.956;4.242;2023-12-29T02:00:16;13.00;99.90
13148;DHT22;6639;50.956;4.242;2023-12-29T02:02:46;12.90;99.90
13148;DHT22;6639;50.956;4.242;2023-12-29T02:05:14;12.90;99.90
13148;DHT22;6639;50.956;4.242;2023-12-29T02:07:42;12.90;99.90
13148;DHT22;6639;50.956;4.242;2023-12-29T02:10:09;13.00;99.90
13148;DHT22;6639;50.956;4.242;2023-12-29T02:12:39;13.30;99.90
13148;DHT22;6639;50.956;4.242;2023-12-29T02:15:07;13.30;99.90
13148;DHT22;6639;50.956;4.242;2023-12-29T02:17:38;13.40;99.90
13148;DHT22;6639;50.956;4.242;2023-12-29T02:20:09;13.30;99.90
13148;DHT22;6639;50.956;4.242;2023-12-29T02:22:36;13.30;99.90
13148;DHT22;6639;50.956;4.242;2023-12-29T02:25:06;13.30;99.90
13148;DHT22;6639;50.956;4.242;2023-12-29T02:27:40;13.30;99.90
13148;DHT22;6639;50.956;4.242;2023-12-29T02:30:12;13.30;99.90
13148;DHT22;6639;50.956;4.242;2023-12-29T02:32:43;13.30;99.90
13148;DHT22;6639;50.956;4.242;2023-12-29T02:35:14;13.10;99.90
13148;DHT22;6639;50.956;4.242;2023-12-29T02:37:43;13.40;99.90
13148;DHT22;6639;50.956;4.242;2023-12-29T02:40:12;13.50;99.90
13148;DHT22;6639;50.956;4.242;2023-12-29T02:42:45;13.50;99.90
13148;DHT22;6639;50.956;4.242;2023-12-29T02:45:12;13.90;99.90
13148;DHT22;6639;50.956;4.242;2023-12-29T02:47:39;13.70;99.90
13148;DHT22;6639;50.956;4.242;2023-12-29T02:50:07;13.40;99.90
13148;DHT22;6639;50.956;4.242;2023-12-29T02:52:34;13.40;99.90
13148;DHT22;6639;50.956;4.242;2023-12-29T02:55:01;13.30;99.90
13148;DHT22;6639;50.956;4.242;2023-12-29T02:57:30;13.20;99.90
13148;DHT22;6639;50.956;4.242;2023-12-29T02:59:57;13.00;99.90
13148;DHT22;6639;50.956;4.242;2023-12-29T03:02:24;13.10;99.90
13148;DHT22;6639;50.956;4.242;2023-12-29T03:04:51;13.20;99.90
13148;DHT22;6639;50.956;4.242;2023-12-29T03:07:18;13.40;99.90
13148;DHT22;6639;50.956;4.242;2023-12-29T03:09:45;13.10;99.90
13148;DHT22;6639;50.956;4.242;2023-12-29T03:12:13;13.40;99.90
13148;DHT22;6639;50.956;4.242;2023-12-29T03:14:41;13.40;99.90
13148;DHT22;6639;50.956;4.242;2023-12-29T03:17:08;13.40;99.90
13148;DHT22;6639;50.956;4.242;2023-12-29T03:19:35;13.30;99.90
13148;DHT22;6639;50.956;4.242;2023-12-29T03:22:02;13.30;99.90
13148;DHT22;6639;50.956;4.242;2023-12-29T03:24:29;13.50;99.90
13148;DHT22;6639;50.956;4.242;2023-12-29T03:26:56;13.30;99.90
13148;DHT22;6639;50.956;4.242;2023-12-29T03:29:23;13.20;99.90
13148;DHT22;6639;50.956;4.242;2023-12-29T03:31:51;13.20;99.90
13148;DHT22;6639;50.956;4.242;2023-12-29T03:34:18;13.20;99.90
13148;DHT22;6639;50.956;4.242;2023-12-29T03:36:45;13.20;99.90
13148;DHT22;6639;50.956;4.242;2023-12-29T03:39:12;13.00;99.90
13148;DHT22;6639;50.956;4.242;2023-12-29T03:41:39;12.90;99.90
13148;DHT22;6639;50.956;4.242;2023-12-29T03:44:06;13.00;99.90
13148;DHT22;6639;50.956;4.242;2023-12-29T03:46:33;13.20;99.90
13148;DHT22;6639;50.956;4.242;2023-12-29T03:49:01;13.00;99.90
13148;DHT22;6639;50.956;4.242;2023-12-29T03:51:28;13.20;99.90
13148;DHT22;6639;50.956;4.242;2023-12-29T03:53:55;13.30;99.90
13148;DHT22;6639;50.956;4.242;2023-12-29T03:56:24;13.20;99.90
13148;DHT22;6639;50.956;4.242;2023-12-29T03:58:51;13.30;99.90
13148;DHT22;6639;50.956;4.242;2023-12-29T04:01:18;13.60;99.90
13148;DHT22;6639;50.956;4.242;2023-12-29T04:03:46;13.20;99.90
13148;DHT22;6639;50.956;4.242;2023-12-29T04:06:14;13.10;99.90
13148;DHT22;6639;50.956;4.242;2023-12-29T04:08:41;13.20;99.90
13148;DHT22;6639;50.956;4.242;2023-12-29T04:11:08;13.50;99.90
13148;DHT22;6639;50.956;4.242;2023-12-29T04:13:35;13.10;99.90
13148;DHT22;6639;50.956;4.242;2023-12-29T04:16:02;13.00;99.90
13148;DHT22;6639;50.956;4.242;2023-12-29T04:18:29;13.20;99.90
13148;DHT22;6639;50.956;4.242;2023-12-29T04:20:56;13.40;99.90
13148;DHT22;6639;50.956;4.242;2023-12-29T04:23:24;13.50;99.90
13148;DHT22;6639;50.956;4.242;2023-12-29T04:25:51;13.60;99.90
13148;DHT22;6639;50.956;4.242;2023-12-29T04:28:18;13.50;99.90
13148;DHT22;6639;50.956;4.242;2023-12-29T04:30:45;13.40;99.90
13148;DHT22;6639;50.956;4.242;2023-12-29T04:33:12;13.60;99.90
13148;DHT22;6639;50.956;4.242;2023-12-29T04:35:39;13.30;99.90
13148;DHT22;6639;50.956;4.242;2023-12-29T04:38:06;13.40;99.90
13148;DHT22;6639;50.956;4.242;2023-12-29T04:40:34;13.30;99.90
13148;DHT22;6639;50.956;4.242;2023-12-29T04:43:01;13.30;99.90
13148;DHT22;6639;50.956;4.242;2023-12-29T04:45:28;13.00;99.90
13148;DHT22;6639;50.956;4.242;2023-12-29T04:47:55;13.40;99.90
13148;DHT22;6639;50.956;4.242;2023-12-29T04:50:22;13.40;99.90
13148;DHT22;6639;50.956;4.242;2023-12-29T04:52:49;13.40;99.90
13148;DHT22;6639;50.956;4.242;2023-12-29T04:55:16;13.40;99.90
13148;DHT22;6639;50.956;4.242;2023-12-29T04:57:44;13.40;99.90
13148;DHT22;6639;50.956;4.242;2023-12-29T05:00:12;13.60;99.90
13148;DHT22;6639;50.956;4.242;2023-12-29T05:02:39;13.50;99.90
13148;DHT22;6639;50.956;4.242;2023-12-29T05:05:06;13.80;99.90
13148;DHT22;6639;50.956;4.242;2023-12-29T05:07:33;13.20;99.90
13148;DHT22;6639;50.956;4.242;2023-12-29T05:10:00;13.30;99.90
13148;DHT22;6639;50.956;4.242;2023-12-29T05:12:27;13.10;99.90
13148;DHT22;6639;50.956;4.242;2023-12-29T05:14:55;12.80;99.90
13148;DHT22;6639;50.956;4.242;2023-12-29T05:17:22;13.30;99.90
13148;DHT22;6639;50.956;4.242;2023-12-29T05:19:49;13.60;99.90
13148;DHT22;6639;50.956;4.242;2023-12-29T05:22:17;13.60;99.90
13148;DHT22;6639;50.956;4.242;2023-12-29T05:24:44;13.30;99.90
13148;DHT22;6639;50.956;4.242;2023-12-29T05:27:11;13.50;99.90
13148;DHT22;6639;50.956;4.242;2023-12-29T05:29:38;13.50;99.90
13148;DHT22;6639;50.956;4.242;2023-12-29T05:32:07;13.40;99.90
13148;DHT22;6639;50.956;4.242;2023-12-29T05:34:34;13.20;99.90
13148;DHT22;6639;50.956;4.242;2023-12-29T05:37:01;13.60;99.90
13148;DHT22;6639;50.956;4.242;2023-12-29T05:39:28;13.70;99.90
13148;DHT22;6639;50.956;4.242;2023-12-29T05:41:55;13.60;99.90
13148;DHT22;6639;50.956;4.242;2023-12-29T05:44:22;13.50;99.90
13148;DHT22;6639;50.956;4.242;2023-12-29T05:46:49;13.50;99.90
13148;DHT22;6639;50.956;4.242;2023-12-29T05:49:18;13.30;99.90
13148;DHT22;6639;50.956;4.242;2023-12-29T05:51:45;13.40;99.90
13148;DHT22;6639;50.956;4.242;2023-12-29T05:54:12;13.20;99.90
13148;DHT22;6639;50.956;4.242;2023-12-29T05:56:39;13.40;99.90
13148;DHT22;6639;50.956;4.242;2023-12-29T05:59:06;13.70;99.90
13148;DHT22;6639;50.956;4.242;2023-12-29T06:01:33;13.60;99.90
13148;DHT22;6639;50.956;4.242;2023-12-29T06:04:00;13.50;99.90
13148;DHT22;6639;50.956;4.242;2023-12-29T06:06:28;13.50;99.90
13148;DHT22;6639;50.956;4.242;2023-12-29T06:08:55;13.50;99.90
13148;DHT22;6639;50.956;4.242;2023-12-29T06:11:22;13.40;99.90
13148;DHT22;6639;50.956;4.242;2023-12-29T06:13:49;13.40;99.90
13148;DHT22;6639;50.956;4.242;2023-12-29T06:16:19;13.10;99.90
13148;DHT22;6639;50.956;4.242;2023-12-29T06:18:47;12.80;99.90
13148;DHT22;6639;50.956;4.242;2023-12-29T06:21:14;13.20;99.90
13148;DHT22;6639;50.956;4.242;2023-12-29T06:23:42;13.20;99.90
13148;DHT22;6639;50.956;4.242;2023-12-29T06:26:15;13.00;99.90
13148;DHT22;6639;50.956;4.242;2023-12-29T06:28:43;12.90;99.90
13148;DHT22;6639;50.956;4.242;2023-12-29T06:31:10;12.90;99.90
13148;DHT22;6639;50.956;4.242;2023-12-29T06:33:40;12.50;99.90
13148;DHT22;6639;50.956;4.242;2023-12-29T06:36:08;12.70;99.90
13148;DHT22;6639;50.956;4.242;2023-12-29T06:38:35;12.80;99.90
13148;DHT22;6639;50.956;4.242;2023-12-29T06:41:04;12.90;99.90
13148;DHT22;6639;50.956;4.242;2023-12-29T06:43:31;12.60;99.90
13148;DHT22;6639;50.956;4.242;2023-12-29T06:45:59;12.80;99.90
13148;DHT22;6639;50.956;4.242;2023-12-29T06:48:26;13.00;99.90
13148;DHT22;6639;50.956;4.242;2023-12-29T06:50:53;12.70;99.90
13148;DHT22;6639;50.956;4.242;2023-12-29T06:53:20;12.70;99.90
13148;DHT22;6639;50.956;4.242;2023-12-29T06:55:47;12.50;99.90
13148;DHT22;6639;50.956;4.242;2023-12-29T06:58:16;11.90;99.90
13148;DHT22;6639;50.956;4.242;2023-12-29T07:00:43;12.30;99.90
13148;DHT22;6639;50.956;4.242;2023-12-29T07:03:13;12.10;99.90
13148;DHT22;6639;50.956;4.242;2023-12-29T07:05:40;12.10;99.90
13148;DHT22;6639;50.956;4.242;2023-12-29T07:08:07;12.30;99.90
13148;DHT22;6639;50.956;4.242;2023-12-29T07:10:34;12.40;99.90
13148;DHT22;6639;50.956;4.242;2023-12-29T07:13:01;12.40;99.90
13148;DHT22;6639;50.956;4.242;2023-12-29T07:15:30;12.30;99.90
13148;DHT22;6639;50.956;4.242;2023-12-29T07:17:56;12.30;99.90
13148;DHT22;6639;50.956;4.242;2023-12-29T07:20:23;12.30;99.90
13148;DHT22;6639;50.956;4.242;2023-12-29T07:22:50;12.10;99.90
13148;DHT22;6639;50.956;4.242;2023-12-29T07:25:17;12.20;99.90
13148;DHT22;6639;50.956;4.242;2023-12-29T07:27:44;12.70;99.90
13148;DHT22;6639;50.956;4.242;2023-12-29T07:30:12;12.90;99.90
13148;DHT22;6639;50.956;4.242;2023-12-29T07:32:41;12.60;99.90
13148;DHT22;6639;50.956;4.242;2023-12-29T07:35:08;12.80;99.90
13148;DHT22;6639;50.956;4.242;2023-12-29T07:37:35;13.00;99.90
13148;DHT22;6639;50.956;4.242;2023-12-29T07:40:02;13.10;99.90
13148;DHT22;6639;50.956;4.242;2023-12-29T07:42:29;13.30;99.90
13148;DHT22;6639;50.956;4.242;2023-12-29T07:44:58;13.20;99.90
13148;DHT22;6639;50.956;4.242;2023-12-29T07:47:25;13.20;99.90
13148;DHT22;6639;50.956;4.242;2023-12-29T07:49:54;13.50;99.90
13148;DHT22;6639;50.956;4.242;2023-12-29T07:52:20;13.60;99.90
13148;DHT22;6639;50.956;4.242;2023-12-29T07:54:48;13.70;99.90
13148;DHT22;6639;50.956;4.242;2023-12-29T07:57:15;13.50;99.90
13148;DHT22;6639;50.956;4.242;2023-12-29T07:59:42;13.30;99.90
13148;DHT22;6639;50.956;4.242;2023-12-29T08:02:09;13.50;99.90
13148;DHT22;6639;50.956;4.242;2023-12-29T08:04:36;13.30;99.90
13148;DHT22;6639;50.956;4.242;2023-12-29T08:07:05;13.30;99.90
13148;DHT22;6639;50.956;4.242;2023-12-29T08:09:32;13.30;99.90
13148;DHT22;6639;50.956;4.242;2023-12-29T08:11:59;13.60;99.90
13148;DHT22;6639;50.956;4.242;2023-12-29T08:14:26;13.60;99.90
13148;DHT22;6639;50.956;4.242;2023-12-29T08:16:53;13.60;99.90
13148;DHT22;6639;50.956;4.242;2023-12-29T08:19:22;13.70;99.90
13148;DHT22;6639;50.956;4.242;2023-12-29T08:21:50;13.60;99.90
13148;DHT22;6639;50.956;4.242;2023-12-29T08:24:18;13.30;99.90
13148;DHT22;6639;50.956;4.242;2023-12-29T08:26:46;13.50;99.90
13148;DHT22;6639;50.956;4.242;2023-12-29T08:29:14;13.20;99.90
13148;DHT22;6639;50.956;4.242;2023-12-29T08:31:41;13.40;99.90
13148;DHT22;6639;50.956;4.242;2023-12-29T08:34:08;13.30;99.90
13148;DHT22;6639;50.956;4.242;2023-12-29T08:36:35;13.40;99.90
13148;DHT22;6639;50.956;4.242;2023-12-29T08:39:02;13.50;99.90
13148;DHT22;6639;50.956;4.242;2023-12-29T08:41:30;13.70;99.90
13148;DHT22;6639;50.956;4.242;2023-12-29T08:43:57;13.90;99.90
13148;DHT22;6639;50.956;4.242;2023-12-29T08:46:24;14.50;99.90
13148;DHT22;6639;50.956;4.242;2023-12-29T08:48:51;15.00;99.90
13148;DHT22;6639;50.956;4.242;2023-12-29T08:51:18;14.70;99.90
13148;DHT22;6639;50.956;4.242;2023-12-29T08:53:45;14.50;99.90
13148;DHT22;6639;50.956;4.242;2023-12-29T08:56:12;14.30;99.90
13148;DHT22;6639;50.956;4.242;2023-12-29T08:58:41;14.30;99.90
13148;DHT22;6639;50.956;4.242;2023-12-29T09:01:08;13.90;99.90
13148;DHT22;6639;50.956;4.242;2023-12-29T09:03:35;13.80;99.90
13148;DHT22;6639;50.956;4.242;2023-12-29T09:06:02;13.90;99.90
13148;DHT22;6639;50.956;4.242;2023-12-29T09:08:29;13.50;99.90
13148;DHT22;6639;50.956;4.242;2023-12-29T09:10:56;13.50;99.90
13148;DHT22;6639;50.956;4.242;2023-12-29T09:13:23;13.50;99.90
13148;DHT22;6639;50.956;4.242;2023-12-29T09:15:54;13.50;99.90
13148;DHT22;6639;50.956;4.242;2023-12-29T09:18:21;13.50;99.90
13148;DHT22;6639;50.956;4.242;2023-12-29T09:20:47;13.50;99.90
13148;DHT22;6639;50.956;4.242;2023-12-29T09:23:14;13.50;99.90
13148;DHT22;6639;50.956;4.242;2023-12-29T09:25:41;13.30;99.90
13148;DHT22;6639;50.956;4.242;2023-12-29T09:28:08;13.40;99.90
13148;DHT22;6639;50.956;4.242;2023-12-29T09:30:35;13.20;99.90
13148;DHT22;6639;50.956;4.242;2023-12-29T09:33:04;13.40;99.90
13148;DHT22;6639;50.956;4.242;2023-12-29T09:35:31;13.50;99.90
13148;DHT22;6639;50.956;4.242;2023-12-29T09:37:58;13.70;99.90
13148;DHT22;6639;50.956;4.242;2023-12-29T09:40:25;14.00;99.90
13148;DHT22;6639;50.956;4.242;2023-12-29T09:42:52;13.70;99.90
13148;DHT22;6639;50.956;4.242;2023-12-29T09:45:23;13.70;99.90
13148;DHT22;6639;50.956;4.242;2023-12-29T09:47:52;13.30;99.90
13148;DHT22;6639;50.956;4.242;2023-12-29T09:50:22;13.20;99.90
13148;DHT22;6639;50.956;4.242;2023-12-29T09:52:50;13.40;99.90
13148;DHT22;6639;50.956;4.242;2023-12-29T09:55:19;13.70;99.90
13148;DHT22;6639;50.956;4.242;2023-12-29T09:57:47;13.70;99.90
13148;DHT22;6639;50.956;4.242;2023-12-29T10:00:16;13.40;99.90
13148;DHT22;6639;50.956;4.242;2023-12-29T10:02:42;13.50;99.90
13148;DHT22;6639;50.956;4.242;2023-12-29T10:05:09;13.50;99.90
13148;DHT22;6639;50.956;4.242;2023-12-29T10:07:38;13.60;99.90
13148;DHT22;6639;50.956;4.242;2023-12-29T10:10:06;13.70;99.90
13148;DHT22;6639;50.956;4.242;2023-12-29T10:12:34;13.80;99.90
13148;DHT22;6639;50.956;4.242;2023-12-29T10:15:06;13.90;99.90
13148;DHT22;6639;50.956;4.242;2023-12-29T10:17:46;14.10;99.90
13148;DHT22;6639;50.956;4.242;2023-12-29T10:20:25;14.30;99.90
13148;DHT22;6639;50.956;4.242;2023-12-29T10:23:06;14.40;99.90
13148;DHT22;6639;50.956;4.242;2023-12-29T10:25:34;14.10;99.90
13148;DHT22;6639;50.956;4.242;2023-12-29T10:28:01;14.30;99.90
13148;DHT22;6639;50.956;4.242;2023-12-29T10:30:29;14.20;99.90
13148;DHT22;6639;50.956;4.242;2023-12-29T10:32:57;14.00;99.90
13148;DHT22;6639;50.956;4.242;2023-12-29T10:35:26;14.10;99.90
13148;DHT22;6639;50.956;4.242;2023-12-29T10:37:53;13.70;99.90
13148;DHT22;6639;50.956;4.242;2023-12-29T10:40:21;13.80;99.90
13148;DHT22;6639;50.956;4.242;2023-12-29T10:42:52;13.90;99.90
13148;DHT22;6639;50.956;4.242;2023-12-29T10:45:19;14.00;99.90
13148;DHT22;6639;50.956;4.242;2023-12-29T10:47:46;13.90;99.90
13148;DHT22;6639;50.956;4.242;2023-12-29T10:50:13;14.20;99.90
13148;DHT22;6639;50.956;4.242;2023-12-29T10:52:40;13.90;99.90
13148;DHT22;6639;50.956;4.242;2023-12-29T10:55:10;14.00;99.90
13148;DHT22;6639;50.956;4.242;2023-12-29T10:57:40;14.20;99.90
13148;DHT22;6639;50.956;4.242;2023-12-29T11:00:08;14.10;99.90
13148;DHT22;6639;50.956;4.242;2023-12-29T11:02:38;14.40;99.90
13148;DHT22;6639;50.956;4.242;2023-12-29T11:05:06;14.30;99.90
13148;DHT22;6639;50.956;4.242;2023-12-29T11:07:35;14.50;99.90
13148;DHT22;6639;50.956;4.242;2023-12-29T11:10:04;14.50;99.90
13148;DHT22;6639;50.956;4.242;2023-12-29T11:12:35;14.40;99.90
13148;DHT22;6639;50.956;4.242;2023-12-29T11:15:05;14.10;99.90
13148;DHT22;6639;50.956;4.242;2023-12-29T11:17:34;13.80;99.90
13148;DHT22;6639;50.956;4.242;2023-12-29T11:20:02;13.90;99.90
13148;DHT22;6639;50.956;4.242;2023-12-29T11:22:30;13.90;99.90
13148;DHT22;6639;50.956;4.242;2023-12-29T11:24:58;13.80;99.90
13148;DHT22;6639;50.956;4.242;2023-12-29T11:27:29;13.90;99.90
13148;DHT22;6639;50.956;4.242;2023-12-29T11:29:58;14.00;99.90
13148;DHT22;6639;50.956;4.242;2023-12-29T11:32:32;14.10;99.90
13148;DHT22;6639;50.956;4.242;2023-12-29T11:35:12;14.00;99.90
13148;DHT22;6639;50.956;4.242;2023-12-29T11:37:57;14.20;99.90
13148;DHT22;6639;50.956;4.242;2023-12-29T11:40:30;14.10;99.90
13148;DHT22;6639;50.956;4.242;2023-12-29T11:43:05;14.20;99.90
13148;DHT22;6639;50.956;4.242;2023-12-29T11:45:35;14.30;99.90
13148;DHT22;6639;50.956;4.242;2023-12-29T11:48:04;14.40;99.90
13148;DHT22;6639;50.956;4.242;2023-12-29T11:50:33;14.50;99.90
13148;DHT22;6639;50.956;4.242;2023-12-29T11:53:00;14.20;99.90
13148;DHT22;6639;50.956;4.242;2023-12-29T11:55:33;14.00;99.90
13148;DHT22;6639;50.956;4.242;2023-12-29T11:58:01;13.70;99.90
13148;DHT22;6639;50.956;4.242;2023-12-29T12:00:41;13.90;99.90
13148;DHT22;6639;50.956;4.242;2023-12-29T12:03:18;14.10;99.90
13148;DHT22;6639;50.956;4.242;2023-12-29T12:05:47;13.70;99.90
13148;DHT22;6639;50.956;4.242;2023-12-29T12:08:29;13.80;99.90
13148;DHT22;6639;50.956;4.242;2023-12-29T12:10:57;13.50;99.90
13148;DHT22;6639;50.956;4.242;2023-12-29T12:13:44;13.50;99.90
13148;DHT22;6639;50.956;4.242;2023-12-29T12:19:08;13.90;99.90
13148;DHT22;6639;50.956;4.242;2023-12-29T12:21:36;14.10;99.90
13148;DHT22;6639;50.956;4.242;2023-12-29T12:24:03;14.30;99.90
13148;DHT22;6639;50.956;4.242;2023-12-29T12:26:31;14.50;99.90
13148;DHT22;6639;50.956;4.242;2023-12-29T12:28:58;14.40;99.90
13148;DHT22;6639;50.956;4.242;2023-12-29T12:31:25;14.30;99.90
13148;DHT22;6639;50.956;4.242;2023-12-29T12:33:53;14.00;99.90
13148;DHT22;6639;50.956;4.242;2023-12-29T12:36:23;14.00;99.90
13148;DHT22;6639;50.956;4.242;2023-12-29T12:38:51;14.20;99.90
13148;DHT22;6639;50.956;4.242;2023-12-29T12:41:19;14.20;99.90
13148;DHT22;6639;50.956;4.242;2023-12-29T12:43:53;13.90;99.90
13148;DHT22;6639;50.956;4.242;2023-12-29T12:46:25;14.00;99.90
13148;DHT22;6639;50.956;4.242;2023-12-29T12:48:52;14.00;99.90
13148;DHT22;6639;50.956;4.242;2023-12-29T12:51:22;13.80;99.90
13148;DHT22;6639;50.956;4.242;2023-12-29T12:53:49;13.90;99.90
13148;DHT22;6639;50.956;4.242;2023-12-29T12:56:18;13.90;99.90
13148;DHT22;6639;50.956;4.242;2023-12-29T12:58:45;13.90;99.90
13148;DHT22;6639;50.956;4.242;2023-12-29T13:01:12;13.90;99.90
13148;DHT22;6639;50.956;4.242;2023-12-29T13:03:39;13.70;99.90
13148;DHT22;6639;50.956;4.242;2023-12-29T13:06:07;13.60;99.90
13148;DHT22;6639;50.956;4.242;2023-12-29T13:08:35;13.80;99.90
13148;DHT22;6639;50.956;4.242;2023-12-29T13:11:02;14.10;99.90
13148;DHT22;6639;50.956;4.242;2023-12-29T13:13:37;14.40;99.90
13148;DHT22;6639;50.956;4.242;2023-12-29T13:16:04;14.60;99.90
13148;DHT22;6639;50.956;4.242;2023-12-29T13:18:31;14.40;99.90
13148;DHT22;6639;50.956;4.242;2023-12-29T13:21:00;14.50;99.90
13148;DHT22;6639;50.956;4.242;2023-12-29T13:23:28;14.60;99.90
13148;DHT22;6639;50.956;4.242;2023-12-29T13:25:57;14.60;99.90
13148;DHT22;6639;50.956;4.242;2023-12-29T13:28:26;14.70;99.90
13148;DHT22;6639;50.956;4.242;2023-12-29T13:30:54;14.70;99.90
13148;DHT22;6639;50.956;4.242;2023-12-29T13:33:29;14.50;99.90
13148;DHT22;6639;50.956;4.242;2023-12-29T13:36:06;14.70;99.90
13148;DHT22;6639;50.956;4.242;2023-12-29T13:38:38;14.50;99.90
13148;DHT22;6639;50.956;4.242;2023-12-29T13:41:12;14.30;99.90
13148;DHT22;6639;50.956;4.242;2023-12-29T13:43:42;14.40;99.90
13148;DHT22;6639;50.956;4.242;2023-12-29T13:46:12;14.30;99.90
13148;DHT22;6639;50.956;4.242;2023-12-29T13:48:40;14.60;99.90
13148;DHT22;6639;50.956;4.242;2023-12-29T13:51:12;14.80;99.90
13148;DHT22;6639;50.956;4.242;2023-12-29T13:53:39;14.60;99.90
13148;DHT22;6639;50.956;4.242;2023-12-29T13:56:07;14.30;99.90
13148;DHT22;6639;50.956;4.242;2023-12-29T13:58:36;14.30;99.90
13148;DHT22;6639;50.956;4.242;2023-12-29T14:01:07;14.00;99.90
13148;DHT22;6639;50.956;4.242;2023-12-29T14:03:42;14.20;99.90
13148;DHT22;6639;50.956;4.242;2023-12-29T14:06:18;14.40;99.90
13148;DHT22;6639;50.956;4.242;2023-12-29T14:08:47;14.60;99.90
13148;DHT22;6639;50.956;4.242;2023-12-29T14:11:14;14.30;99.90
13148;DHT22;6639;50.956;4.242;2023-12-29T14:13:43;14.20;99.90
13148;DHT22;6639;50.956;4.242;2023-12-29T14:16:09;14.10;99.90
13148;DHT22;6639;50.956;4.242;2023-12-29T14:18:52;14.10;99.90
13148;DHT22;6639;50.956;4.242;2023-12-29T14:21:24;14.50;99.90
13148;DHT22;6639;50.956;4.242;2023-12-29T14:24:02;14.20;99.90
13148;DHT22;6639;50.956;4.242;2023-12-29T14:26:32;14.10;99.90
13148;DHT22;6639;50.956;4.242;2023-12-29T14:29:07;14.20;99.90
13148;DHT22;6639;50.956;4.242;2023-12-29T14:31:36;14.20;99.90
13148;DHT22;6639;50.956;4.242;2023-12-29T14:34:04;14.40;99.90
13148;DHT22;6639;50.956;4.242;2023-12-29T14:36:31;14.50;99.90
13148;DHT22;6639;50.956;4.242;2023-12-29T14:38:58;14.40;99.90
13148;DHT22;6639;50.956;4.242;2023-12-29T14:41:25;14.80;99.90
13148;DHT22;6639;50.956;4.242;2023-12-29T14:43:52;14.80;99.90
13148;DHT22;6639;50.956;4.242;2023-12-29T14:46:21;14.90;99.90
13148;DHT22;6639;50.956;4.242;2023-12-29T14:48:48;14.70;99.90
13148;DHT22;6639;50.956;4.242;2023-12-29T14:51:15;14.70;99.90
13148;DHT22;6639;50.956;4.242;2023-12-29T14:53:43;14.80;99.90
13148;DHT22;6639;50.956;4.242;2023-12-29T14:56:10;14.80;99.90
13148;DHT22;6639;50.956;4.242;2023-12-29T14:58:37;14.40;99.90
13148;DHT22;6639;50.956;4.242;2023-12-29T15:01:05;14.60;99.90
13148;DHT22;6639;50.956;4.242;2023-12-29T15:03:35;14.40;99.90
13148;DHT22;6639;50.956;4.242;2023-12-29T15:06:04;14.40;99.90
13148;DHT22;6639;50.956;4.242;2023-12-29T15:08:31;14.50;99.90
13148;DHT22;6639;50.956;4.242;2023-12-29T15:11:01;14.60;99.90
13148;DHT22;6639;50.956;4.242;2023-12-29T15:13:28;14.50;99.90
13148;DHT22;6639;50.956;4.242;2023-12-29T15:15:56;14.60;99.90
13148;DHT22;6639;50.956;4.242;2023-12-29T15:18:25;14.60;99.90
13148;DHT22;6639;50.956;4.242;2023-12-29T15:20:53;14.50;99.90
13148;DHT22;6639;50.956;4.242;2023-12-29T15:23:20;14.90;99.90
13148;DHT22;6639;50.956;4.242;2023-12-29T15:25:48;14.70;99.90
13148;DHT22;6639;50.956;4.242;2023-12-29T15:28:15;14.80;99.90
13148;DHT22;6639;50.956;4.242;2023-12-29T15:30:43;14.50;99.90
13148;DHT22;6639;50.956;4.242;2023-12-29T15:33:11;14.60;99.90
13148;DHT22;6639;50.956;4.242;2023-12-29T15:35:38;14.60;99.90
13148;DHT22;6639;50.956;4.242;2023-12-29T15:38:07;14.90;99.90
13148;DHT22;6639;50.956;4.242;2023-12-29T15:40:34;15.10;99.90
13148;DHT22;6639;50.956;4.242;2023-12-29T15:43:01;15.30;99.90
13148;DHT22;6639;50.956;4.242;2023-12-29T15:45:29;15.30;99.90
13148;DHT22;6639;50.956;4.242;2023-12-29T15:47:56;15.10;99.90
13148;DHT22;6639;50.956;4.242;2023-12-29T15:50:24;15.10;99.90
13148;DHT22;6639;50.956;4.242;2023-12-29T15:52:51;14.80;99.90
13148;DHT22;6639;50.956;4.242;2023-12-29T15:55:20;14.80;99.90